Latest Coastal Weather Observations for Maria Island

IDT60701

Issued at 7:22 pm EST Monday 24 April 2017 (issued every 10 minutes, with the page automatically refreshed every 10 minutes)

About coastal observations | Map of coastal stations | Coastal observations for TAS | Marine services | Other Formats
Station Details ID: 092124 Name: MARIA ISLAND (POINT LESUEUR) Lat: -42.66 Lon: 148.02 Height: 28.0 m
Data from the previous 72 hours. | See also: Recent months at Maria Island
Date/Time
EST
Temp
°C
Wind Pressure Rain since
9am
mm
Weather Cloud Vis
km
Sea
Height
m
Swell
Dir  Spd
kts
Gust
kts
hPa Trend Height
m
Period
s
Dir
24/07:00pm 15.3 NNE 16 18 1012.6 - 1.0 - - - - - - -
24/06:30pm 15.5 NNE 17 19 1013.1 - 1.0 - - - - - - -
24/06:00pm 15.4 NNE 17 20 1013.2 - 1.0 Recent precip. - - - - - -
24/05:30pm 15.7 NNE 12 16 1013.7 - 0.6 - - - - - - -
24/05:00pm 16.0 N 13 14 1013.9 - 0.4 - - - - - - -
24/04:30pm 16.3 N 11 14 1013.9 - 0.0 - - - - - - -
24/04:00pm 16.4 NNE 12 14 1014.0 - 0.0 - - - - - - -
24/03:30pm 16.5 N 10 14 1014.5 - 0.0 - - - - - - -
24/03:00pm 16.5 N 11 14 1014.8 - 0.0 - - - - - - -
24/02:30pm 16.4 N 14 16 1015.2 - 0.0 - - - - - - -
24/02:00pm 16.1 N 12 14 1015.7 - 0.0 - - - - - - -
24/01:30pm 16.2 N 15 17 1015.9 - 0.0 - - - - - - -
24/01:00pm 15.8 N 14 16 1016.5 - 0.0 - - - - - - -
24/12:30pm 15.9 N 14 17 1017.1 - 0.0 - - - - - - -
24/12:00pm 15.8 N 13 15 1017.8 - 0.0 - - - - - - -
24/11:30am 15.7 N 11 12 1018.4 - 0.0 - - - - - - -
24/11:00am 15.4 N 12 13 1019.0 - 0.0 - - - - - - -
24/10:30am 15.2 N 11 12 1019.4 - 0.0 - - - - - - -
24/10:00am 14.8 N 10 11 1019.8 - 0.0 - - - - - - -
24/09:30am 14.5 N 7 9 1020.1 - 0.0 - - - - - - -
24/09:00am 14.1 N 6 8 1020.4 - 2.0 - - - - - - -
24/08:30am 14.0 NW 4 5 1020.8 - 2.0 - - - - - - -
24/08:00am 13.7 WNW 3 4 1021.0 - 2.0 - - - - - - -
24/07:30am 13.6 NNW 2 4 1021.1 - 2.0 - - - - - - -
24/07:00am 13.3 NW 3 3 1021.3 - 2.0 - - - - - - -
24/06:30am 13.3 NNW 3 3 1021.5 - 2.0 - - - - - - -
24/06:00am 13.4 CALM 0 2 1021.6 - 2.0 Recent precip. - - - - - -
24/05:30am 13.4 CALM 0 0 1021.7 - 2.0 - - - - - - -
24/05:00am 13.3 WNW 3 4 1021.8 - 1.8 - - - - - - -
24/04:30am 13.2 WNW 4 5 1021.9 - 1.8 - - - - - - -
24/04:00am 13.3 NW 2 3 1022.0 - 1.8 - - - - - - -
24/03:30am 13.2 N 2 3 1022.1 - 1.8 - - - - - - -
24/03:00am 13.4 ESE 3 3 1022.4 - 1.4 Rain - - - - - -
24/02:30am 13.5 CALM 0 1 1023.0 - 1.2 - - - - - - -
24/02:00am 13.1 S 1 2 1023.2 - 1.2 - - - - - - -
24/01:30am 12.9 ESE 2 3 1023.5 - 1.2 - - - - - - -
24/01:00am 12.8 ESE 2 2 1023.8 - 1.2 - - - - - - -
24/12:30am 12.8 CALM 0 0 1024.0 - 1.2 - - - - - - -
24/12:00am 12.3 CALM 0 0 1024.2 - 1.2 - - - - - - -
 
Date/Time
EST
Temp
°C
Wind Pressure Rain since
9am
mm
Weather Cloud Vis
km
Sea
Height
m
Swell
Dir  Spd
kts
Gust
kts
hPa Trend Height
m
Period
s
Dir
23/11:30pm 12.7 CALM 0 0 1024.6 - 1.2 - - - - - - -
23/11:00pm 13.1 ESE 2 2 1024.9 - 1.2 - - - - - - -
23/10:30pm 13.4 E 2 2 1025.1 - 1.2 - - - - - - -
23/10:00pm 13.3 ENE 1 2 1025.2 - 1.2 - - - - - - -
23/09:30pm 13.5 E 2 2 1025.5 - 1.2 - - - - - - -
23/09:00pm 13.4 E 2 3 1025.3 - 1.2 - - - - - - -
23/08:30pm 13.6 CALM 0 0 1025.3 - 1.2 - - - - - - -
23/08:00pm 13.6 ENE 1 2 1025.2 - 1.2 - - - - - - -
23/07:30pm 14.0 E 2 3 1025.1 - 1.2 - - - - - - -
23/07:00pm 13.9 E 3 4 1025.1 - 1.2 - - - - - - -
23/06:30pm 13.9 ESE 3 3 1025.2 - 1.2 - - - - - - -
23/06:00pm 14.1 SE 3 5 1025.0 - 1.2 - - - - - - -
23/05:30pm 14.2 SE 4 5 1024.8 - 1.2 - - - - - - -
23/05:00pm 14.3 SSE 4 5 1024.8 - 1.2 - - - - - - -
23/04:30pm 14.5 SSE 4 5 1024.7 - 1.2 - - - - - - -
23/04:00pm 14.6 SE 4 6 1024.7 - 1.2 - - - - - - -
23/03:30pm 14.8 SE 4 5 1024.6 - 1.2 - - - - - - -
23/03:00pm 14.9 S 4 6 1024.7 - 1.2 - - - - - - -
23/02:30pm 15.1 SSE 5 8 1024.6 - 1.2 - - - - - - -
23/02:00pm 14.8 S 6 8 1024.7 - 1.2 - - - - - - -
23/01:30pm 14.8 SSE 4 5 1024.8 - 1.2 - - - - - - -
23/01:00pm 14.1 NNE 1 2 1025.0 - 1.2 - - - - - - -
23/12:30pm 14.3 CALM 0 0 1025.2 - 1.2 - - - - - - -
23/12:00pm 13.7 WSW 2 3 1025.5 - 1.2 Recent precip. - - - - - -
23/11:30am 13.4 WSW 2 3 1025.9 - 1.2 - - - - - - -
23/11:00am 13.1 NE 1 2 1026.1 - 0.8 - - - - - - -
23/10:30am 13.2 SE 4 5 1026.2 - 0.6 - - - - - - -
23/10:00am 13.5 SSE 7 9 1026.0 - 0.0 - - - - - - -
23/09:30am 13.5 SE 6 9 1026.2 - 0.0 - - - - - - -
23/09:00am 13.6 SSE 11 14 1026.1 - 0.6 - - - - - - -
23/08:30am 13.8 SSE 11 13 1026.0 - 0.6 - - - - - - -
23/08:00am 13.6 S 9 13 1025.8 - 0.6 - - - - - - -
23/07:30am 13.2 S 9 10 1025.5 - 0.6 - - - - - - -
23/07:00am 13.2 S 11 14 1025.1 - 0.6 - - - - - - -
23/06:30am 13.2 S 11 14 1025.0 - 0.6 - - - - - - -
23/06:00am 13.6 SSE 9 13 1024.7 - 0.6 - - - - - - -
23/05:30am 13.6 S 11 13 1024.5 - 0.6 - - - - - - -
23/05:00am 13.4 SSE 9 11 1024.3 - 0.6 - - - - - - -
23/04:30am 13.6 S 8 10 1024.1 - 0.2 - - - - - - -
23/04:00am 13.9 S 12 15 1023.8 - 0.2 - - - - - - -
23/03:30am 14.1 SSE 11 13 1023.8 - 0.2 - - - - - - -
23/03:00am 14.0 SSE 11 13 1023.8 - 0.2 - - - - - - -
23/02:30am 14.3 SSE 13 15 1023.7 - 0.2 - - - - - - -
23/02:00am 14.8 SSE 11 13 1023.8 - 0.2 - - - - - - -
23/01:30am 15.3 S 7 9 1023.5 - 0.2 - - - - - - -
23/01:00am 15.3 S 6 9 1023.6 - 0.2 - - - - - - -
23/12:30am 15.5 SSE 6 6 1023.6 - 0.2 - - - - - - -
23/12:00am 15.5 SSE 5 7 1023.7 - 0.2 - - - - - - -
 
Date/Time
EST
Temp
°C
Wind Pressure Rain since
9am
mm
Weather Cloud Vis
km
Sea
Height
m
Swell
Dir  Spd
kts
Gust
kts
hPa Trend Height
m
Period
s
Dir
22/11:30pm 15.4 S 4 5 1023.7 - 0.2 - - - - - - -
22/11:00pm 15.3 SE 3 5 1023.8 - 0.2 - - - - - - -
22/10:30pm 15.2 ESE 4 5 1023.7 - 0.2 - - - - - - -
22/10:00pm 15.3 ESE 3 4 1023.7 - 0.2 - - - - - - -
22/09:30pm 15.3 SE 6 8 1023.6 - 0.2 - - - - - - -
22/09:00pm 15.5 SE 4 5 1023.6 - 0.2 - - - - - - -
22/08:30pm 15.4 SE 4 6 1023.4 - 0.2 - - - - - - -
22/08:00pm 15.5 SE 5 6 1023.3 - 0.2 - - - - - - -
22/07:30pm 15.5 SE 7 9 1023.1 - 0.0 - - - - - - -
22/07:00pm 15.7 SSE 8 9 1022.9 - 0.0 - - - - - - -
22/06:30pm 15.8 SSE 6 8 1022.6 - 0.0 - - - - - - -
22/06:00pm 15.8 S 7 8 1022.3 - 0.0 - - - - - - -
22/05:30pm 15.9 S 7 9 1022.1 - 0.0 - - - - - - -
22/05:00pm 16.1 SSE 5 7 1021.9 - 0.0 - - - - - - -
22/04:30pm 16.2 SSE 8 10 1021.6 - 0.0 - - - - - - -
22/04:00pm 16.2 S 10 11 1021.4 - 0.0 - - - - - - -
22/03:30pm 16.4 S 8 9 1021.3 - 0.0 - - - - - - -
22/03:00pm 16.4 S 9 11 1021.3 - 0.0 - - - - - - -
22/02:30pm 16.4 S 15 17 1020.9 - 0.0 - - - - - - -
22/02:00pm 16.6 S 9 12 1020.9 - 0.0 - - - - - - -
22/01:30pm 17.1 NNE 1 2 1020.9 - 0.0 - - - - - - -
22/01:00pm 17.1 N 8 9 1020.8 - 0.0 - - - - - - -
22/12:30pm 17.2 N 10 11 1021.0 - 0.0 - - - - - - -
22/12:00pm 16.9 N 13 14 1021.2 - 0.0 - - - - - - -
22/11:30am 17.2 N 11 13 1021.4 - 0.0 - - - - - - -
22/11:00am 17.0 N 13 14 1021.4 - 0.0 - - - - - - -
22/10:30am 17.0 N 12 14 1021.5 - 0.0 - - - - - - -
22/10:00am 16.1 N 12 13 1021.6 - 0.0 - - - - - - -
22/09:30am 16.0 NNW 11 13 1021.6 - 0.0 - - - - - - -
22/09:00am 16.1 N 11 14 1021.5 - 1.2 Recent precip. - - - - - -
22/08:30am 16.3 NNE 10 12 1021.5 - 1.2 - - - - - - -
22/08:00am 15.9 NW 7 9 1022.0 - 0.6 - - - - - - -
22/07:30am 16.0 N 8 9 1021.8 - 0.0 - - - - - - -
22/07:00am 16.4 N 8 9 1021.4 - 0.0 - - - - - - -
22/06:30am 16.2 N 8 9 1021.0 - 0.0 - - - - - - -
22/06:00am 15.4 NNW 7 8 1020.8 - 0.0 - - - - - - -
22/05:30am 15.0 NNW 8 9 1020.7 - 0.0 - - - - - - -
22/05:00am 14.8 NW 8 11 1020.6 - 0.0 - - - - - - -
22/04:30am 15.3 NNW 13 14 1020.4 - 0.0 - - - - - - -
22/04:00am 16.2 N 14 15 1020.1 - 0.0 - - - - - - -
22/03:30am 15.4 NNW 11 12 1020.3 - 0.0 - - - - - - -
22/03:00am 16.1 N 13 15 1020.3 - 0.0 - - - - - - -
22/02:30am 16.1 N 15 17 1020.5 - 0.0 - - - - - - -
22/02:00am 16.4 N 16 19 1020.6 - 0.0 - - - - - - -
22/01:30am 16.3 N 18 20 1020.5 - 0.0 - - - - - - -
22/01:00am 16.4 N 11 13 1021.0 - 0.0 - - - - - - -
22/12:30am 16.5 N 10 12 1021.1 - 0.0 - - - - - - -
22/12:00am 16.6 N 12 13 1021.2 - 0.0 - - - - - - -
 
Date/Time
EST
Temp
°C
Wind Pressure Rain since
9am
mm
Weather Cloud Vis
km
Sea
Height
m
Swell
Dir  Spd
kts
Gust
kts
hPa Trend Height
m
Period
s
Dir
21/11:30pm 16.7 N 16 17 1021.2 - 0.0 - - - - - - -
21/11:00pm 16.8 N 12 15 1021.5 - 0.0 - - - - - - -
21/10:30pm 16.9 N 14 17 1021.8 - 0.0 - - - - - - -
21/10:00pm 17.1 N 15 17 1021.7 - 0.0 - - - - - - -
21/09:30pm 17.1 N 16 17 1021.8 - 0.0 - - - - - - -
21/09:00pm 16.9 N 15 17 1021.8 - 0.0 - - - - - - -
21/08:30pm 17.0 N 16 17 1021.8 - 0.0 - - - - - - -
21/08:00pm 17.5 N 17 19 1021.6 - 0.0 - - - - - - -
21/07:30pm 18.2 N 19 22 1021.6 - 0.0 - - - - - - -

Other Formats:

Comma delimited format used in spreadsheet applications
http://www.bom.gov.au/fwo/IDT60701/IDT60701.95988.axf

JavaScript Object Notation format (JSON) in row-major order
http://www.bom.gov.au/fwo/IDT60701/IDT60701.95988.json